sensor_id;sensor_type;location;lat;lon;timestamp;P1;durP1;ratioP1;P2;durP2;ratioP2
17201;SDS011;8717;53.588;10.176;2024-01-11T00:02:16;99.63;;;22.00;;
17201;SDS011;8717;53.588;10.176;2024-01-11T00:04:44;27.63;;;17.07;;
17201;SDS011;8717;53.588;10.176;2024-01-11T00:07:11;29.57;;;17.37;;
17201;SDS011;8717;53.588;10.176;2024-01-11T00:09:39;34.93;;;17.30;;
17201;SDS011;8717;53.588;10.176;2024-01-11T00:12:06;33.07;;;17.90;;
17201;SDS011;8717;53.588;10.176;2024-01-11T00:14:33;56.50;;;19.20;;
17201;SDS011;8717;53.588;10.176;2024-01-11T00:17:00;29.70;;;17.57;;
17201;SDS011;8717;53.588;10.176;2024-01-11T00:19:27;133.77;;;22.53;;
17201;SDS011;8717;53.588;10.176;2024-01-11T00:21:55;44.27;;;18.20;;
17201;SDS011;8717;53.588;10.176;2024-01-11T00:24:22;60.03;;;18.83;;
17201;SDS011;8717;53.588;10.176;2024-01-11T00:26:49;76.83;;;20.27;;
17201;SDS011;8717;53.588;10.176;2024-01-11T00:29:16;28.17;;;16.70;;
17201;SDS011;8717;53.588;10.176;2024-01-11T00:31:43;78.30;;;20.17;;
17201;SDS011;8717;53.588;10.176;2024-01-11T00:34:10;71.53;;;20.53;;
17201;SDS011;8717;53.588;10.176;2024-01-11T00:36:36;50.07;;;18.27;;
17201;SDS011;8717;53.588;10.176;2024-01-11T00:39:05;95.97;;;20.83;;
17201;SDS011;8717;53.588;10.176;2024-01-11T00:41:32;72.83;;;20.70;;
17201;SDS011;8717;53.588;10.176;2024-01-11T00:43:58;73.27;;;20.50;;
17201;SDS011;8717;53.588;10.176;2024-01-11T00:46:25;82.93;;;20.80;;
17201;SDS011;8717;53.588;10.176;2024-01-11T00:48:52;191.33;;;25.60;;
17201;SDS011;8717;53.588;10.176;2024-01-11T00:51:19;61.53;;;19.97;;
17201;SDS011;8717;53.588;10.176;2024-01-11T00:53:46;88.43;;;20.47;;
17201;SDS011;8717;53.588;10.176;2024-01-11T00:56:17;109.10;;;20.97;;
17201;SDS011;8717;53.588;10.176;2024-01-11T00:58:45;144.87;;;22.53;;
17201;SDS011;8717;53.588;10.176;2024-01-11T01:01:12;139.77;;;23.37;;
17201;SDS011;8717;53.588;10.176;2024-01-11T01:03:39;117.80;;;21.97;;
17201;SDS011;8717;53.588;10.176;2024-01-11T01:06:06;53.93;;;18.33;;
17201;SDS011;8717;53.588;10.176;2024-01-11T01:08:33;176.90;;;26.07;;
17201;SDS011;8717;53.588;10.176;2024-01-11T01:11:00;113.33;;;22.17;;
17201;SDS011;8717;53.588;10.176;2024-01-11T01:13:28;56.23;;;20.53;;
17201;SDS011;8717;53.588;10.176;2024-01-11T01:15:55;37.87;;;19.13;;
17201;SDS011;8717;53.588;10.176;2024-01-11T01:18:23;52.87;;;19.60;;
17201;SDS011;8717;53.588;10.176;2024-01-11T01:20:50;101.57;;;21.67;;
17201;SDS011;8717;53.588;10.176;2024-01-11T01:23:17;32.00;;;17.93;;
17201;SDS011;8717;53.588;10.176;2024-01-11T01:25:44;41.77;;;17.57;;
17201;SDS011;8717;53.588;10.176;2024-01-11T01:28:11;33.97;;;17.40;;
17201;SDS011;8717;53.588;10.176;2024-01-11T01:30:39;59.80;;;19.23;;
17201;SDS011;8717;53.588;10.176;2024-01-11T01:33:06;66.93;;;19.40;;
17201;SDS011;8717;53.588;10.176;2024-01-11T01:35:32;74.43;;;19.60;;
17201;SDS011;8717;53.588;10.176;2024-01-11T01:37:59;150.70;;;21.97;;
17201;SDS011;8717;53.588;10.176;2024-01-11T01:40:27;69.27;;;17.50;;
17201;SDS011;8717;53.588;10.176;2024-01-11T01:42:57;51.67;;;17.87;;
17201;SDS011;8717;53.588;10.176;2024-01-11T01:45:24;78.87;;;18.90;;
17201;SDS011;8717;53.588;10.176;2024-01-11T01:47:53;147.43;;;22.93;;
17201;SDS011;8717;53.588;10.176;2024-01-11T01:50:21;63.23;;;17.50;;
17201;SDS011;8717;53.588;10.176;2024-01-11T01:52:48;63.10;;;17.13;;
17201;SDS011;8717;53.588;10.176;2024-01-11T01:55:16;127.43;;;22.57;;
17201;SDS011;8717;53.588;10.176;2024-01-11T01:57:45;153.03;;;23.60;;
17201;SDS011;8717;53.588;10.176;2024-01-11T02:00:12;36.33;;;17.20;;
17201;SDS011;8717;53.588;10.176;2024-01-11T02:02:40;51.03;;;16.67;;
17201;SDS011;8717;53.588;10.176;2024-01-11T02:05:11;29.17;;;16.47;;
17201;SDS011;8717;53.588;10.176;2024-01-11T02:07:39;61.07;;;17.53;;
17201;SDS011;8717;53.588;10.176;2024-01-11T02:10:07;27.40;;;16.53;;
17201;SDS011;8717;53.588;10.176;2024-01-11T02:12:35;63.23;;;17.53;;
17201;SDS011;8717;53.588;10.176;2024-01-11T02:15:02;44.47;;;17.00;;
17201;SDS011;8717;53.588;10.176;2024-01-11T02:17:30;83.73;;;20.00;;
17201;SDS011;8717;53.588;10.176;2024-01-11T02:19:58;30.87;;;16.90;;
17201;SDS011;8717;53.588;10.176;2024-01-11T02:22:28;96.77;;;19.93;;
17201;SDS011;8717;53.588;10.176;2024-01-11T02:24:59;30.20;;;17.23;;
17201;SDS011;8717;53.588;10.176;2024-01-11T02:27:26;30.87;;;17.47;;
17201;SDS011;8717;53.588;10.176;2024-01-11T02:29:53;134.37;;;21.83;;
17201;SDS011;8717;53.588;10.176;2024-01-11T02:32:19;32.23;;;17.03;;
17201;SDS011;8717;53.588;10.176;2024-01-11T02:34:47;86.33;;;20.30;;
17201;SDS011;8717;53.588;10.176;2024-01-11T02:37:14;30.37;;;18.27;;
17201;SDS011;8717;53.588;10.176;2024-01-11T02:39:42;51.47;;;20.33;;
17201;SDS011;8717;53.588;10.176;2024-01-11T02:42:10;61.80;;;19.90;;
17201;SDS011;8717;53.588;10.176;2024-01-11T02:44:37;64.13;;;20.93;;
17201;SDS011;8717;53.588;10.176;2024-01-11T02:47:04;36.37;;;20.07;;
17201;SDS011;8717;53.588;10.176;2024-01-11T02:49:31;45.63;;;20.60;;
17201;SDS011;8717;53.588;10.176;2024-01-11T02:51:58;33.97;;;19.97;;
17201;SDS011;8717;53.588;10.176;2024-01-11T02:54:25;43.13;;;19.80;;
17201;SDS011;8717;53.588;10.176;2024-01-11T02:56:52;48.03;;;19.67;;
17201;SDS011;8717;53.588;10.176;2024-01-11T02:59:20;40.03;;;20.73;;
17201;SDS011;8717;53.588;10.176;2024-01-11T03:01:47;37.07;;;19.03;;
17201;SDS011;8717;53.588;10.176;2024-01-11T03:04:14;70.93;;;21.67;;
17201;SDS011;8717;53.588;10.176;2024-01-11T03:06:42;114.30;;;24.30;;
17201;SDS011;8717;53.588;10.176;2024-01-11T03:09:09;44.93;;;20.10;;
17201;SDS011;8717;53.588;10.176;2024-01-11T03:11:36;42.90;;;20.73;;
17201;SDS011;8717;53.588;10.176;2024-01-11T03:14:03;47.33;;;21.13;;
17201;SDS011;8717;53.588;10.176;2024-01-11T03:16:31;218.47;;;30.00;;
17201;SDS011;8717;53.588;10.176;2024-01-11T03:18:59;77.00;;;22.97;;
17201;SDS011;8717;53.588;10.176;2024-01-11T03:21:26;41.93;;;21.20;;
17201;SDS011;8717;53.588;10.176;2024-01-11T03:23:53;42.67;;;22.03;;
17201;SDS011;8717;53.588;10.176;2024-01-11T03:26:20;49.83;;;21.40;;
17201;SDS011;8717;53.588;10.176;2024-01-11T03:28:46;49.43;;;21.83;;
17201;SDS011;8717;53.588;10.176;2024-01-11T03:31:13;60.07;;;22.97;;
17201;SDS011;8717;53.588;10.176;2024-01-11T03:33:42;48.90;;;23.27;;
17201;SDS011;8717;53.588;10.176;2024-01-11T03:36:09;39.67;;;21.67;;
17201;SDS011;8717;53.588;10.176;2024-01-11T03:38:37;41.77;;;22.47;;
17201;SDS011;8717;53.588;10.176;2024-01-11T03:41:06;40.83;;;21.93;;
17201;SDS011;8717;53.588;10.176;2024-01-11T03:43:34;79.53;;;22.70;;
17201;SDS011;8717;53.588;10.176;2024-01-11T03:46:02;38.27;;;21.53;;
17201;SDS011;8717;53.588;10.176;2024-01-11T03:48:29;49.13;;;22.13;;
17201;SDS011;8717;53.588;10.176;2024-01-11T03:50:57;38.47;;;19.80;;
17201;SDS011;8717;53.588;10.176;2024-01-11T03:53:24;39.73;;;19.10;;
17201;SDS011;8717;53.588;10.176;2024-01-11T03:55:51;89.27;;;21.23;;
17201;SDS011;8717;53.588;10.176;2024-01-11T03:58:18;90.37;;;21.70;;
17201;SDS011;8717;53.588;10.176;2024-01-11T04:00:45;44.40;;;18.87;;
17201;SDS011;8717;53.588;10.176;2024-01-11T04:03:12;71.60;;;21.23;;
17201;SDS011;8717;53.588;10.176;2024-01-11T04:05:39;52.43;;;19.93;;
17201;SDS011;8717;53.588;10.176;2024-01-11T04:08:07;99.47;;;22.63;;
17201;SDS011;8717;53.588;10.176;2024-01-11T04:10:34;31.77;;;18.63;;
17201;SDS011;8717;53.588;10.176;2024-01-11T04:13:01;55.57;;;19.37;;
17201;SDS011;8717;53.588;10.176;2024-01-11T04:15:29;59.30;;;20.13;;
17201;SDS011;8717;53.588;10.176;2024-01-11T04:17:56;71.30;;;20.83;;
17201;SDS011;8717;53.588;10.176;2024-01-11T04:20:23;78.10;;;20.50;;
17201;SDS011;8717;53.588;10.176;2024-01-11T04:22:50;50.07;;;19.33;;
17201;SDS011;8717;53.588;10.176;2024-01-11T04:25:18;94.80;;;21.37;;
17201;SDS011;8717;53.588;10.176;2024-01-11T04:27:46;30.67;;;18.53;;
17201;SDS011;8717;53.588;10.176;2024-01-11T04:30:13;32.33;;;18.90;;
17201;SDS011;8717;53.588;10.176;2024-01-11T04:32:40;42.37;;;19.37;;
17201;SDS011;8717;53.588;10.176;2024-01-11T04:35:07;34.20;;;18.90;;
17201;SDS011;8717;53.588;10.176;2024-01-11T04:37:35;36.87;;;17.27;;
17201;SDS011;8717;53.588;10.176;2024-01-11T04:40:02;28.53;;;17.53;;
17201;SDS011;8717;53.588;10.176;2024-01-11T04:42:31;33.80;;;17.87;;
17201;SDS011;8717;53.588;10.176;2024-01-11T04:44:58;33.87;;;19.03;;
17201;SDS011;8717;53.588;10.176;2024-01-11T04:47:25;41.37;;;18.47;;
17201;SDS011;8717;53.588;10.176;2024-01-11T04:49:53;137.07;;;24.80;;
17201;SDS011;8717;53.588;10.176;2024-01-11T04:52:19;79.20;;;21.43;;
17201;SDS011;8717;53.588;10.176;2024-01-11T04:54:47;58.37;;;19.23;;
17201;SDS011;8717;53.588;10.176;2024-01-11T04:57:13;59.90;;;20.43;;
17201;SDS011;8717;53.588;10.176;2024-01-11T04:59:43;34.67;;;19.33;;
17201;SDS011;8717;53.588;10.176;2024-01-11T05:02:10;31.53;;;18.87;;
17201;SDS011;8717;53.588;10.176;2024-01-11T05:04:36;49.23;;;19.70;;
17201;SDS011;8717;53.588;10.176;2024-01-11T05:07:03;31.70;;;18.70;;
17201;SDS011;8717;53.588;10.176;2024-01-11T05:09:30;45.53;;;20.07;;
17201;SDS011;8717;53.588;10.176;2024-01-11T05:11:57;34.23;;;20.37;;
17201;SDS011;8717;53.588;10.176;2024-01-11T05:14:24;85.90;;;23.40;;
17201;SDS011;8717;53.588;10.176;2024-01-11T05:16:52;205.57;;;29.57;;
17201;SDS011;8717;53.588;10.176;2024-01-11T05:19:19;112.87;;;24.20;;
17201;SDS011;8717;53.588;10.176;2024-01-11T05:21:46;77.37;;;23.17;;
17201;SDS011;8717;53.588;10.176;2024-01-11T05:24:13;46.80;;;22.33;;
17201;SDS011;8717;53.588;10.176;2024-01-11T05:26:40;50.67;;;20.33;;
17201;SDS011;8717;53.588;10.176;2024-01-11T05:29:06;83.80;;;22.17;;
17201;SDS011;8717;53.588;10.176;2024-01-11T05:31:34;66.17;;;22.90;;
17201;SDS011;8717;53.588;10.176;2024-01-11T05:34:03;124.60;;;23.23;;
17201;SDS011;8717;53.588;10.176;2024-01-11T05:36:29;82.20;;;21.37;;
17201;SDS011;8717;53.588;10.176;2024-01-11T05:38:56;155.57;;;25.67;;
17201;SDS011;8717;53.588;10.176;2024-01-11T05:41:23;60.93;;;20.10;;
17201;SDS011;8717;53.588;10.176;2024-01-11T05:43:50;32.63;;;19.13;;
17201;SDS011;8717;53.588;10.176;2024-01-11T05:46:17;40.90;;;18.97;;
17201;SDS011;8717;53.588;10.176;2024-01-11T05:48:43;75.30;;;20.73;;
17201;SDS011;8717;53.588;10.176;2024-01-11T05:51:12;64.50;;;18.83;;
17201;SDS011;8717;53.588;10.176;2024-01-11T05:53:38;79.60;;;20.13;;
17201;SDS011;8717;53.588;10.176;2024-01-11T05:56:08;40.83;;;19.00;;
17201;SDS011;8717;53.588;10.176;2024-01-11T05:58:35;50.10;;;19.73;;
17201;SDS011;8717;53.588;10.176;2024-01-11T06:01:03;91.70;;;21.97;;
17201;SDS011;8717;53.588;10.176;2024-01-11T06:03:30;51.43;;;19.03;;
17201;SDS011;8717;53.588;10.176;2024-01-11T06:05:59;254.07;;;28.50;;
17201;SDS011;8717;53.588;10.176;2024-01-11T06:08:29;115.70;;;23.30;;
17201;SDS011;8717;53.588;10.176;2024-01-11T06:10:56;95.03;;;22.73;;
17201;SDS011;8717;53.588;10.176;2024-01-11T06:13:23;58.20;;;20.60;;
17201;SDS011;8717;53.588;10.176;2024-01-11T06:15:51;38.60;;;19.93;;
17201;SDS011;8717;53.588;10.176;2024-01-11T06:18:18;104.80;;;23.70;;
17201;SDS011;8717;53.588;10.176;2024-01-11T06:20:44;87.87;;;21.87;;
17201;SDS011;8717;53.588;10.176;2024-01-11T06:23:11;121.77;;;24.47;;
17201;SDS011;8717;53.588;10.176;2024-01-11T06:25:40;85.77;;;22.17;;
17201;SDS011;8717;53.588;10.176;2024-01-11T06:28:07;94.87;;;22.10;;
17201;SDS011;8717;53.588;10.176;2024-01-11T06:30:35;83.53;;;23.63;;
17201;SDS011;8717;53.588;10.176;2024-01-11T06:33:02;73.17;;;21.07;;
17201;SDS011;8717;53.588;10.176;2024-01-11T06:35:30;188.37;;;28.57;;
17201;SDS011;8717;53.588;10.176;2024-01-11T06:37:57;207.20;;;29.97;;
17201;SDS011;8717;53.588;10.176;2024-01-11T06:40:24;39.63;;;20.33;;
17201;SDS011;8717;53.588;10.176;2024-01-11T06:42:52;44.43;;;20.43;;
17201;SDS011;8717;53.588;10.176;2024-01-11T06:45:19;192.33;;;29.17;;
17201;SDS011;8717;53.588;10.176;2024-01-11T06:47:46;189.37;;;28.43;;
17201;SDS011;8717;53.588;10.176;2024-01-11T06:50:14;234.27;;;28.30;;
17201;SDS011;8717;53.588;10.176;2024-01-11T06:52:41;187.53;;;26.53;;
17201;SDS011;8717;53.588;10.176;2024-01-11T06:55:08;91.20;;;19.13;;
17201;SDS011;8717;53.588;10.176;2024-01-11T06:57:36;218.70;;;26.47;;
17201;SDS011;8717;53.588;10.176;2024-01-11T07:00:04;159.23;;;23.53;;
17201;SDS011;8717;53.588;10.176;2024-01-11T07:02:33;127.53;;;21.20;;
17201;SDS011;8717;53.588;10.176;2024-01-11T07:05:00;85.90;;;20.20;;
17201;SDS011;8717;53.588;10.176;2024-01-11T07:07:27;90.57;;;21.70;;
17201;SDS011;8717;53.588;10.176;2024-01-11T07:09:55;77.27;;;19.17;;
17201;SDS011;8717;53.588;10.176;2024-01-11T07:12:22;44.07;;;18.20;;
17201;SDS011;8717;53.588;10.176;2024-01-11T07:14:49;73.03;;;17.27;;
17201;SDS011;8717;53.588;10.176;2024-01-11T07:17:17;52.33;;;17.37;;
17201;SDS011;8717;53.588;10.176;2024-01-11T07:19:43;166.13;;;21.87;;
17201;SDS011;8717;53.588;10.176;2024-01-11T07:22:10;223.10;;;24.57;;
17201;SDS011;8717;53.588;10.176;2024-01-11T07:24:37;29.80;;;14.50;;
17201;SDS011;8717;53.588;10.176;2024-01-11T07:27:04;40.03;;;16.00;;
17201;SDS011;8717;53.588;10.176;2024-01-11T07:29:31;54.37;;;15.53;;
17201;SDS011;8717;53.588;10.176;2024-01-11T07:31:58;42.60;;;14.77;;
17201;SDS011;8717;53.588;10.176;2024-01-11T07:34:26;54.97;;;14.13;;
17201;SDS011;8717;53.588;10.176;2024-01-11T07:36:53;36.17;;;13.93;;
17201;SDS011;8717;53.588;10.176;2024-01-11T07:39:20;91.33;;;17.07;;
17201;SDS011;8717;53.588;10.176;2024-01-11T07:41:47;298.10;;;27.37;;
17201;SDS011;8717;53.588;10.176;2024-01-11T07:44:14;102.80;;;16.53;;
17201;SDS011;8717;53.588;10.176;2024-01-11T07:46:42;85.07;;;17.90;;
17201;SDS011;8717;53.588;10.176;2024-01-11T07:49:09;267.03;;;26.77;;
17201;SDS011;8717;53.588;10.176;2024-01-11T07:51:37;355.87;;;35.67;;
17201;SDS011;8717;53.588;10.176;2024-01-11T07:54:05;120.30;;;17.40;;
17201;SDS011;8717;53.588;10.176;2024-01-11T07:56:32;198.83;;;21.80;;
17201;SDS011;8717;53.588;10.176;2024-01-11T07:59:00;147.10;;;19.93;;
17201;SDS011;8717;53.588;10.176;2024-01-11T08:01:27;44.73;;;13.63;;
17201;SDS011;8717;53.588;10.176;2024-01-11T08:03:53;102.77;;;19.07;;
17201;SDS011;8717;53.588;10.176;2024-01-11T08:06:20;44.53;;;14.27;;
17201;SDS011;8717;53.588;10.176;2024-01-11T08:08:48;153.53;;;20.50;;
17201;SDS011;8717;53.588;10.176;2024-01-11T08:11:16;59.17;;;16.33;;
17201;SDS011;8717;53.588;10.176;2024-01-11T08:13:44;182.40;;;22.07;;
17201;SDS011;8717;53.588;10.176;2024-01-11T08:16:14;74.03;;;15.73;;
17201;SDS011;8717;53.588;10.176;2024-01-11T08:18:43;126.30;;;18.13;;
17201;SDS011;8717;53.588;10.176;2024-01-11T08:21:10;26.77;;;12.83;;
17201;SDS011;8717;53.588;10.176;2024-01-11T08:23:39;35.67;;;12.63;;
17201;SDS011;8717;53.588;10.176;2024-01-11T08:26:11;27.47;;;12.20;;
17201;SDS011;8717;53.588;10.176;2024-01-11T08:28:38;34.77;;;12.73;;
17201;SDS011;8717;53.588;10.176;2024-01-11T08:31:06;157.73;;;18.77;;
17201;SDS011;8717;53.588;10.176;2024-01-11T08:33:34;113.23;;;16.67;;
17201;SDS011;8717;53.588;10.176;2024-01-11T08:36:02;188.27;;;20.13;;
17201;SDS011;8717;53.588;10.176;2024-01-11T08:38:29;59.27;;;12.80;;
17201;SDS011;8717;53.588;10.176;2024-01-11T08:40:57;213.13;;;21.37;;
17201;SDS011;8717;53.588;10.176;2024-01-11T08:43:26;24.30;;;10.30;;
17201;SDS011;8717;53.588;10.176;2024-01-11T08:45:53;210.87;;;21.43;;
17201;SDS011;8717;53.588;10.176;2024-01-11T08:48:20;122.20;;;15.43;;
17201;SDS011;8717;53.588;10.176;2024-01-11T08:50:47;146.20;;;16.33;;
17201;SDS011;8717;53.588;10.176;2024-01-11T08:53:14;22.53;;;10.20;;
17201;SDS011;8717;53.588;10.176;2024-01-11T08:55:41;59.07;;;11.50;;
17201;SDS011;8717;53.588;10.176;2024-01-11T08:58:08;45.67;;;10.70;;
17201;SDS011;8717;53.588;10.176;2024-01-11T09:00:37;20.27;;;9.77;;
17201;SDS011;8717;53.588;10.176;2024-01-11T09:03:04;70.40;;;11.63;;
17201;SDS011;8717;53.588;10.176;2024-01-11T09:05:31;51.23;;;11.03;;
17201;SDS011;8717;53.588;10.176;2024-01-11T09:07:58;53.97;;;11.77;;
17201;SDS011;8717;53.588;10.176;2024-01-11T09:10:25;23.67;;;9.87;;
17201;SDS011;8717;53.588;10.176;2024-01-11T09:12:52;206.17;;;18.57;;
17201;SDS011;8717;53.588;10.176;2024-01-11T09:15:20;23.80;;;10.13;;
17201;SDS011;8717;53.588;10.176;2024-01-11T09:17:48;23.83;;;10.47;;
17201;SDS011;8717;53.588;10.176;2024-01-11T09:20:15;21.83;;;8.70;;
17201;SDS011;8717;53.588;10.176;2024-01-11T09:22:43;19.40;;;8.63;;
17201;SDS011;8717;53.588;10.176;2024-01-11T09:25:11;35.17;;;10.47;;
17201;SDS011;8717;53.588;10.176;2024-01-11T09:27:38;20.30;;;9.63;;
17201;SDS011;8717;53.588;10.176;2024-01-11T09:30:06;210.87;;;19.73;;
17201;SDS011;8717;53.588;10.176;2024-01-11T09:32:34;26.93;;;10.17;;
17201;SDS011;8717;53.588;10.176;2024-01-11T09:35:02;20.30;;;9.13;;
17201;SDS011;8717;53.588;10.176;2024-01-11T09:37:29;24.67;;;9.93;;
17201;SDS011;8717;53.588;10.176;2024-01-11T09:39:57;27.33;;;10.10;;
17201;SDS011;8717;53.588;10.176;2024-01-11T09:42:25;104.37;;;13.70;;
17201;SDS011;8717;53.588;10.176;2024-01-11T09:44:53;26.83;;;10.33;;
17201;SDS011;8717;53.588;10.176;2024-01-11T09:47:20;28.97;;;9.93;;
17201;SDS011;8717;53.588;10.176;2024-01-11T09:49:48;54.30;;;11.93;;
17201;SDS011;8717;53.588;10.176;2024-01-11T09:52:19;28.30;;;10.63;;
17201;SDS011;8717;53.588;10.176;2024-01-11T09:54:47;43.57;;;11.87;;
17201;SDS011;8717;53.588;10.176;2024-01-11T09:57:14;30.80;;;11.90;;
17201;SDS011;8717;53.588;10.176;2024-01-11T09:59:45;34.57;;;10.97;;
17201;SDS011;8717;53.588;10.176;2024-01-11T10:02:13;31.20;;;12.50;;
17201;SDS011;8717;53.588;10.176;2024-01-11T10:04:41;48.53;;;12.90;;
17201;SDS011;8717;53.588;10.176;2024-01-11T10:07:08;64.00;;;13.80;;
17201;SDS011;8717;53.588;10.176;2024-01-11T10:09:37;31.67;;;11.30;;
17201;SDS011;8717;53.588;10.176;2024-01-11T10:12:04;47.20;;;11.43;;
17201;SDS011;8717;53.588;10.176;2024-01-11T10:14:31;23.40;;;10.93;;
17201;SDS011;8717;53.588;10.176;2024-01-11T10:16:58;26.53;;;10.67;;
17201;SDS011;8717;53.588;10.176;2024-01-11T10:19:25;113.57;;;15.50;;
17201;SDS011;8717;53.588;10.176;2024-01-11T10:21:52;28.73;;;10.87;;
17201;SDS011;8717;53.588;10.176;2024-01-11T10:24:19;40.23;;;11.27;;
17201;SDS011;8717;53.588;10.176;2024-01-11T10:26:48;38.27;;;11.43;;
17201;SDS011;8717;53.588;10.176;2024-01-11T10:29:16;22.97;;;10.00;;
17201;SDS011;8717;53.588;10.176;2024-01-11T10:31:43;27.33;;;10.57;;
17201;SDS011;8717;53.588;10.176;2024-01-11T10:34:10;27.37;;;11.37;;
17201;SDS011;8717;53.588;10.176;2024-01-11T10:36:37;24.20;;;10.43;;
17201;SDS011;8717;53.588;10.176;2024-01-11T10:39:03;22.17;;;10.97;;
17201;SDS011;8717;53.588;10.176;2024-01-11T10:41:32;24.50;;;11.33;;
17201;SDS011;8717;53.588;10.176;2024-01-11T10:44:06;32.77;;;10.80;;
17201;SDS011;8717;53.588;10.176;2024-01-11T10:46:41;35.10;;;11.33;;
17201;SDS011;8717;53.588;10.176;2024-01-11T10:49:11;21.87;;;11.17;;
17201;SDS011;8717;53.588;10.176;2024-01-11T10:51:45;38.70;;;11.43;;
17201;SDS011;8717;53.588;10.176;2024-01-11T10:54:19;27.33;;;10.70;;
17201;SDS011;8717;53.588;10.176;2024-01-11T10:56:48;74.23;;;12.73;;
17201;SDS011;8717;53.588;10.176;2024-01-11T10:59:17;26.50;;;11.50;;
17201;SDS011;8717;53.588;10.176;2024-01-11T11:01:46;47.67;;;11.80;;
17201;SDS011;8717;53.588;10.176;2024-01-11T11:04:13;39.37;;;11.13;;
17201;SDS011;8717;53.588;10.176;2024-01-11T11:06:41;52.73;;;11.93;;
17201;SDS011;8717;53.588;10.176;2024-01-11T11:09:10;48.70;;;12.87;;
17201;SDS011;8717;53.588;10.176;2024-01-11T11:11:39;41.40;;;12.03;;
17201;SDS011;8717;53.588;10.176;2024-01-11T11:14:07;19.73;;;9.50;;
17201;SDS011;8717;53.588;10.176;2024-01-11T11:16:36;43.40;;;11.40;;
17201;SDS011;8717;53.588;10.176;2024-01-11T11:19:03;30.37;;;10.50;;
17201;SDS011;8717;53.588;10.176;2024-01-11T11:21:30;119.47;;;16.47;;
17201;SDS011;8717;53.588;10.176;2024-01-11T11:23:56;26.13;;;10.40;;
17201;SDS011;8717;53.588;10.176;2024-01-11T11:26:25;53.27;;;11.43;;
17201;SDS011;8717;53.588;10.176;2024-01-11T11:28:52;113.57;;;14.77;;
17201;SDS011;8717;53.588;10.176;2024-01-11T11:31:34;50.03;;;12.40;;
17201;SDS011;8717;53.588;10.176;2024-01-11T11:34:02;51.13;;;11.60;;
17201;SDS011;8717;53.588;10.176;2024-01-11T11:36:31;57.60;;;12.90;;
17201;SDS011;8717;53.588;10.176;2024-01-11T11:38:59;23.03;;;10.37;;
17201;SDS011;8717;53.588;10.176;2024-01-11T11:41:28;21.33;;;10.13;;
17201;SDS011;8717;53.588;10.176;2024-01-11T11:44:00;46.67;;;12.47;;
17201;SDS011;8717;53.588;10.176;2024-01-11T11:46:27;31.03;;;12.10;;
17201;SDS011;8717;53.588;10.176;2024-01-11T11:48:55;23.77;;;12.10;;
17201;SDS011;8717;53.588;10.176;2024-01-11T11:51:23;72.03;;;13.87;;
17201;SDS011;8717;53.588;10.176;2024-01-11T11:53:51;34.47;;;12.43;;
17201;SDS011;8717;53.588;10.176;2024-01-11T11:56:19;40.40;;;12.30;;
17201;SDS011;8717;53.588;10.176;2024-01-11T11:58:47;33.93;;;11.43;;
17201;SDS011;8717;53.588;10.176;2024-01-11T12:01:14;22.93;;;10.53;;
17201;SDS011;8717;53.588;10.176;2024-01-11T12:03:43;95.67;;;15.17;;
17201;SDS011;8717;53.588;10.176;2024-01-11T12:06:14;27.33;;;11.77;;
17201;SDS011;8717;53.588;10.176;2024-01-11T12:08:43;81.77;;;15.33;;
17201;SDS011;8717;53.588;10.176;2024-01-11T12:11:12;29.70;;;11.33;;
17201;SDS011;8717;53.588;10.176;2024-01-11T12:13:41;38.00;;;13.00;;
17201;SDS011;8717;53.588;10.176;2024-01-11T12:16:09;23.93;;;11.63;;
17201;SDS011;8717;53.588;10.176;2024-01-11T12:18:37;34.33;;;12.77;;
17201;SDS011;8717;53.588;10.176;2024-01-11T12:21:04;40.73;;;12.60;;
17201;SDS011;8717;53.588;10.176;2024-01-11T12:23:33;28.83;;;11.87;;
17201;SDS011;8717;53.588;10.176;2024-01-11T12:26:02;35.07;;;12.00;;
17201;SDS011;8717;53.588;10.176;2024-01-11T12:28:31;23.40;;;11.10;;
17201;SDS011;8717;53.588;10.176;2024-01-11T12:30:58;25.57;;;12.60;;
17201;SDS011;8717;53.588;10.176;2024-01-11T12:33:25;18.67;;;10.10;;
17201;SDS011;8717;53.588;10.176;2024-01-11T12:35:52;65.83;;;13.40;;
17201;SDS011;8717;53.588;10.176;2024-01-11T12:38:19;27.83;;;11.73;;
17201;SDS011;8717;53.588;10.176;2024-01-11T12:40:46;23.33;;;11.73;;
17201;SDS011;8717;53.588;10.176;2024-01-11T12:43:15;21.93;;;11.73;;
17201;SDS011;8717;53.588;10.176;2024-01-11T12:45:42;23.23;;;11.70;;
17201;SDS011;8717;53.588;10.176;2024-01-11T12:48:09;26.83;;;11.87;;
17201;SDS011;8717;53.588;10.176;2024-01-11T12:50:39;25.53;;;11.83;;
17201;SDS011;8717;53.588;10.176;2024-01-11T12:53:07;88.53;;;15.80;;
17201;SDS011;8717;53.588;10.176;2024-01-11T12:55:34;27.07;;;11.90;;
17201;SDS011;8717;53.588;10.176;2024-01-11T12:58:05;30.60;;;12.87;;
17201;SDS011;8717;53.588;10.176;2024-01-11T13:00:33;27.80;;;12.87;;
17201;SDS011;8717;53.588;10.176;2024-01-11T13:03:01;25.10;;;12.23;;
17201;SDS011;8717;53.588;10.176;2024-01-11T13:05:28;21.20;;;11.33;;
17201;SDS011;8717;53.588;10.176;2024-01-11T13:07:59;23.03;;;12.17;;
17201;SDS011;8717;53.588;10.176;2024-01-11T13:10:28;31.17;;;13.57;;
17201;SDS011;8717;53.588;10.176;2024-01-11T13:12:55;24.90;;;12.27;;
17201;SDS011;8717;53.588;10.176;2024-01-11T13:15:23;23.23;;;12.97;;
17201;SDS011;8717;53.588;10.176;2024-01-11T13:17:51;26.30;;;12.93;;
17201;SDS011;8717;53.588;10.176;2024-01-11T13:20:18;29.50;;;12.50;;
17201;SDS011;8717;53.588;10.176;2024-01-11T13:22:45;27.03;;;13.63;;
17201;SDS011;8717;53.588;10.176;2024-01-11T13:25:12;29.27;;;12.70;;
17201;SDS011;8717;53.588;10.176;2024-01-11T13:27:39;26.43;;;13.73;;
17201;SDS011;8717;53.588;10.176;2024-01-11T13:30:06;27.20;;;12.67;;
17201;SDS011;8717;53.588;10.176;2024-01-11T13:32:34;27.00;;;13.57;;
17201;SDS011;8717;53.588;10.176;2024-01-11T13:35:02;34.77;;;13.83;;
17201;SDS011;8717;53.588;10.176;2024-01-11T13:37:29;29.00;;;13.33;;
17201;SDS011;8717;53.588;10.176;2024-01-11T13:39:56;25.87;;;13.37;;
17201;SDS011;8717;53.588;10.176;2024-01-11T13:42:23;23.50;;;12.87;;
17201;SDS011;8717;53.588;10.176;2024-01-11T13:44:50;25.67;;;13.63;;
17201;SDS011;8717;53.588;10.176;2024-01-11T13:47:17;26.77;;;13.03;;
17201;SDS011;8717;53.588;10.176;2024-01-11T13:49:43;32.50;;;14.40;;
17201;SDS011;8717;53.588;10.176;2024-01-11T13:52:12;34.13;;;14.23;;
17201;SDS011;8717;53.588;10.176;2024-01-11T13:54:39;34.10;;;13.80;;
17201;SDS011;8717;53.588;10.176;2024-01-11T13:57:06;29.33;;;14.37;;
17201;SDS011;8717;53.588;10.176;2024-01-11T13:59:33;31.87;;;14.50;;
17201;SDS011;8717;53.588;10.176;2024-01-11T14:02:00;26.80;;;13.47;;
17201;SDS011;8717;53.588;10.176;2024-01-11T14:04:27;27.27;;;12.53;;
17201;SDS011;8717;53.588;10.176;2024-01-11T14:06:54;28.20;;;13.10;;
17201;SDS011;8717;53.588;10.176;2024-01-11T14:09:22;29.60;;;14.70;;
17201;SDS011;8717;53.588;10.176;2024-01-11T14:11:49;27.37;;;13.90;;
17201;SDS011;8717;53.588;10.176;2024-01-11T14:14:15;26.13;;;14.07;;
17201;SDS011;8717;53.588;10.176;2024-01-11T14:16:44;30.17;;;14.37;;
17201;SDS011;8717;53.588;10.176;2024-01-11T14:19:11;26.57;;;12.83;;
17201;SDS011;8717;53.588;10.176;2024-01-11T14:21:38;26.67;;;13.03;;